sensor_id;sensor_type;location;lat;lon;timestamp;pressure;altitude;pressure_sealevel;temperature;humidity
62436;BME280;48480;50.252;18.848;2024-02-16T00:01:30;99116.23;;;10.12;78.66
62436;BME280;48480;50.252;18.848;2024-02-16T00:04:15;99122.08;;;10.16;78.68
62436;BME280;48480;50.252;18.848;2024-02-16T00:06:59;99124.45;;;10.19;78.63
62436;BME280;48480;50.252;18.848;2024-02-16T00:09:43;99125.52;;;10.19;78.69
62436;BME280;48480;50.252;18.848;2024-02-16T00:12:27;99127.55;;;10.19;78.68
62436;BME280;48480;50.252;18.848;2024-02-16T00:15:11;99126.58;;;10.19;78.62
62436;BME280;48480;50.252;18.848;2024-02-16T00:17:55;99125.52;;;10.19;78.41
62436;BME280;48480;50.252;18.848;2024-02-16T00:20:40;99121.46;;;10.14;78.32
62436;BME280;48480;50.252;18.848;2024-02-16T00:23:23;99122.02;;;10.10;78.22
62436;BME280;48480;50.252;18.848;2024-02-16T00:26:08;99121.66;;;10.07;78.14
62436;BME280;48480;50.252;18.848;2024-02-16T00:28:52;99116.84;;;10.03;78.15
62436;BME280;48480;50.252;18.848;2024-02-16T00:31:36;99113.46;;;10.00;78.23
62436;BME280;48480;50.252;18.848;2024-02-16T00:34:20;99111.30;;;10.01;78.32
62436;BME280;48480;50.252;18.848;2024-02-16T00:37:05;99110.06;;;10.05;78.28
62436;BME280;48480;50.252;18.848;2024-02-16T00:39:53;99115.27;;;10.06;78.17
62436;BME280;48480;50.252;18.848;2024-02-16T00:42:38;99108.70;;;10.08;78.09
62436;BME280;48480;50.252;18.848;2024-02-16T00:45:22;99110.48;;;10.08;78.06
62436;BME280;48480;50.252;18.848;2024-02-16T00:48:06;99106.30;;;10.05;78.14
62436;BME280;48480;50.252;18.848;2024-02-16T00:50:51;99106.13;;;10.03;78.19
62436;BME280;48480;50.252;18.848;2024-02-16T00:53:35;99105.42;;;10.03;78.18
62436;BME280;48480;50.252;18.848;2024-02-16T00:56:19;99102.29;;;10.02;78.14
62436;BME280;48480;50.252;18.848;2024-02-16T00:59:03;99102.61;;;9.99;78.08
62436;BME280;48480;50.252;18.848;2024-02-16T01:01:47;99100.95;;;9.96;78.14
62436;BME280;48480;50.252;18.848;2024-02-16T01:04:31;99099.51;;;9.96;78.25
62436;BME280;48480;50.252;18.848;2024-02-16T01:07:15;99099.92;;;9.96;78.06
62436;BME280;48480;50.252;18.848;2024-02-16T01:09:59;99099.14;;;9.97;77.90
62436;BME280;48480;50.252;18.848;2024-02-16T01:12:43;99098.91;;;9.96;77.92
62436;BME280;48480;50.252;18.848;2024-02-16T01:15:28;99102.39;;;9.93;77.92
62436;BME280;48480;50.252;18.848;2024-02-16T01:18:12;99101.73;;;9.88;77.90
62436;BME280;48480;50.252;18.848;2024-02-16T01:20:56;99100.09;;;9.81;78.09
62436;BME280;48480;50.252;18.848;2024-02-16T01:23:41;99100.73;;;9.74;78.13
62436;BME280;48480;50.252;18.848;2024-02-16T01:26:25;99098.04;;;9.68;78.19
62436;BME280;48480;50.252;18.848;2024-02-16T01:29:09;99095.48;;;9.61;78.27
62436;BME280;48480;50.252;18.848;2024-02-16T01:31:53;99095.34;;;9.53;78.41
62436;BME280;48480;50.252;18.848;2024-02-16T01:34:37;99093.27;;;9.44;78.36
62436;BME280;48480;50.252;18.848;2024-02-16T01:37:23;99092.02;;;9.34;78.50
62436;BME280;48480;50.252;18.848;2024-02-16T01:40:10;99089.46;;;9.27;78.88
62436;BME280;48480;50.252;18.848;2024-02-16T01:43:03;99090.45;;;9.26;78.89
62436;BME280;48480;50.252;18.848;2024-02-16T01:45:47;99086.57;;;9.20;79.07
62436;BME280;48480;50.252;18.848;2024-02-16T01:48:32;99081.69;;;9.14;79.41
62436;BME280;48480;50.252;18.848;2024-02-16T01:51:16;99080.98;;;9.07;79.48
62436;BME280;48480;50.252;18.848;2024-02-16T01:54:00;99080.07;;;9.00;79.55
62436;BME280;48480;50.252;18.848;2024-02-16T01:56:45;99076.05;;;8.91;79.76
62436;BME280;48480;50.252;18.848;2024-02-16T01:59:30;99073.75;;;8.84;79.99
62436;BME280;48480;50.252;18.848;2024-02-16T02:02:14;99072.36;;;8.72;80.31
62436;BME280;48480;50.252;18.848;2024-02-16T02:04:58;99072.40;;;8.65;80.65
62436;BME280;48480;50.252;18.848;2024-02-16T02:07:42;99074.06;;;8.65;80.75
62436;BME280;48480;50.252;18.848;2024-02-16T02:10:26;99069.83;;;8.66;80.78
62436;BME280;48480;50.252;18.848;2024-02-16T02:13:10;99074.20;;;8.63;80.91
62436;BME280;48480;50.252;18.848;2024-02-16T02:15:54;99073.98;;;8.58;81.12
62436;BME280;48480;50.252;18.848;2024-02-16T02:18:39;99067.86;;;8.45;81.10
62436;BME280;48480;50.252;18.848;2024-02-16T02:21:23;99074.56;;;8.34;81.52
62436;BME280;48480;50.252;18.848;2024-02-16T02:24:07;99073.20;;;8.22;81.86
62436;BME280;48480;50.252;18.848;2024-02-16T02:26:51;99071.36;;;8.15;82.06
62436;BME280;48480;50.252;18.848;2024-02-16T02:29:35;99067.45;;;8.05;82.23
62436;BME280;48480;50.252;18.848;2024-02-16T02:32:19;99063.00;;;7.97;82.40
62436;BME280;48480;50.252;18.848;2024-02-16T02:35:04;99058.17;;;7.92;82.60
62436;BME280;48480;50.252;18.848;2024-02-16T02:37:49;99062.02;;;7.87;82.67
62436;BME280;48480;50.252;18.848;2024-02-16T02:40:33;99060.09;;;7.81;82.93
62436;BME280;48480;50.252;18.848;2024-02-16T02:43:17;99061.92;;;7.74;82.94
62436;BME280;48480;50.252;18.848;2024-02-16T02:46:02;99056.66;;;7.66;83.24
62436;BME280;48480;50.252;18.848;2024-02-16T02:48:46;99056.61;;;7.59;83.35
62436;BME280;48480;50.252;18.848;2024-02-16T02:51:30;99059.73;;;7.51;83.61
62436;BME280;48480;50.252;18.848;2024-02-16T02:54:15;99058.77;;;7.45;83.83
62436;BME280;48480;50.252;18.848;2024-02-16T02:56:59;99062.70;;;7.39;83.89
62436;BME280;48480;50.252;18.848;2024-02-16T02:59:43;99060.28;;;7.34;83.93
62436;BME280;48480;50.252;18.848;2024-02-16T03:02:29;99058.27;;;7.33;83.93
62436;BME280;48480;50.252;18.848;2024-02-16T03:05:13;99059.80;;;7.34;83.86
62436;BME280;48480;50.252;18.848;2024-02-16T03:07:57;99060.13;;;7.35;83.88
62436;BME280;48480;50.252;18.848;2024-02-16T03:10:42;99060.13;;;7.33;83.89
62436;BME280;48480;50.252;18.848;2024-02-16T03:13:28;99058.42;;;7.27;84.05
62436;BME280;48480;50.252;18.848;2024-02-16T03:16:12;99059.96;;;7.19;84.21
62436;BME280;48480;50.252;18.848;2024-02-16T03:18:57;99060.27;;;7.07;84.57
62436;BME280;48480;50.252;18.848;2024-02-16T03:21:41;99060.47;;;7.00;84.84
62436;BME280;48480;50.252;18.848;2024-02-16T03:24:25;99058.42;;;6.95;84.93
62436;BME280;48480;50.252;18.848;2024-02-16T03:27:08;99058.44;;;6.92;84.96
62436;BME280;48480;50.252;18.848;2024-02-16T03:29:54;99059.58;;;6.90;85.10
62436;BME280;48480;50.252;18.848;2024-02-16T03:32:38;99061.97;;;6.90;85.14
62436;BME280;48480;50.252;18.848;2024-02-16T03:35:22;99064.02;;;6.87;85.13
62436;BME280;48480;50.252;18.848;2024-02-16T03:38:07;99064.69;;;6.81;85.32
62436;BME280;48480;50.252;18.848;2024-02-16T03:40:51;99063.77;;;6.74;85.42
62436;BME280;48480;50.252;18.848;2024-02-16T03:43:35;99062.67;;;6.68;85.61
62436;BME280;48480;50.252;18.848;2024-02-16T03:46:20;99063.35;;;6.60;85.74
62436;BME280;48480;50.252;18.848;2024-02-16T03:49:03;99065.38;;;6.63;85.90
62436;BME280;48480;50.252;18.848;2024-02-16T03:51:48;99066.05;;;6.68;85.74
62436;BME280;48480;50.252;18.848;2024-02-16T03:54:32;99066.17;;;6.73;85.51
62436;BME280;48480;50.252;18.848;2024-02-16T03:57:16;99066.92;;;6.71;85.47
62436;BME280;48480;50.252;18.848;2024-02-16T04:00:00;99067.02;;;6.71;85.60
62436;BME280;48480;50.252;18.848;2024-02-16T04:02:44;99068.23;;;6.68;85.56
62436;BME280;48480;50.252;18.848;2024-02-16T04:05:29;99070.44;;;6.64;85.58
62436;BME280;48480;50.252;18.848;2024-02-16T04:08:16;99071.96;;;6.57;85.43
62436;BME280;48480;50.252;18.848;2024-02-16T04:11:00;99069.95;;;6.52;85.73
62436;BME280;48480;50.252;18.848;2024-02-16T04:13:44;99071.46;;;6.47;85.79
62436;BME280;48480;50.252;18.848;2024-02-16T04:16:28;99068.75;;;6.45;85.85
62436;BME280;48480;50.252;18.848;2024-02-16T04:19:12;99067.89;;;6.47;85.81
62436;BME280;48480;50.252;18.848;2024-02-16T04:21:56;99065.93;;;6.45;85.70
62436;BME280;48480;50.252;18.848;2024-02-16T04:24:40;99065.83;;;6.46;85.85
62436;BME280;48480;50.252;18.848;2024-02-16T04:27:25;99066.69;;;6.44;86.00
62436;BME280;48480;50.252;18.848;2024-02-16T04:30:09;99028.92;;;6.12;85.95
62436;BME280;48480;50.252;18.848;2024-02-16T04:32:53;99070.55;;;6.36;85.98
62436;BME280;48480;50.252;18.848;2024-02-16T04:35:38;99072.16;;;6.31;86.11
62436;BME280;48480;50.252;18.848;2024-02-16T04:38:22;99072.55;;;6.23;86.27
62436;BME280;48480;50.252;18.848;2024-02-16T04:41:06;99072.82;;;6.24;86.23
62436;BME280;48480;50.252;18.848;2024-02-16T04:43:50;99069.95;;;6.24;86.14
62436;BME280;48480;50.252;18.848;2024-02-16T04:46:34;99069.05;;;6.21;86.16
62436;BME280;48480;50.252;18.848;2024-02-16T04:49:18;99069.44;;;6.16;86.40
62436;BME280;48480;50.252;18.848;2024-02-16T04:52:02;99073.39;;;6.09;86.57
62436;BME280;48480;50.252;18.848;2024-02-16T04:54:47;99070.80;;;6.04;86.81
62436;BME280;48480;50.252;18.848;2024-02-16T04:57:32;99068.99;;;5.97;86.94
62436;BME280;48480;50.252;18.848;2024-02-16T05:00:17;99065.58;;;5.93;86.98
62436;BME280;48480;50.252;18.848;2024-02-16T05:03:01;99067.91;;;5.91;87.01
62436;BME280;48480;50.252;18.848;2024-02-16T05:05:45;99065.80;;;5.92;87.09
62436;BME280;48480;50.252;18.848;2024-02-16T05:08:29;99062.61;;;5.95;87.11
62436;BME280;48480;50.252;18.848;2024-02-16T05:11:13;99061.49;;;5.95;87.07
62436;BME280;48480;50.252;18.848;2024-02-16T05:13:57;99059.14;;;5.94;87.07
62436;BME280;48480;50.252;18.848;2024-02-16T05:16:43;99058.50;;;5.91;86.96
62436;BME280;48480;50.252;18.848;2024-02-16T05:19:28;99060.44;;;5.80;87.04
62436;BME280;48480;50.252;18.848;2024-02-16T05:22:15;99059.38;;;5.73;87.20
62436;BME280;48480;50.252;18.848;2024-02-16T05:25:02;99064.39;;;5.70;87.09
62436;BME280;48480;50.252;18.848;2024-02-16T05:27:46;99060.45;;;5.68;87.25
62436;BME280;48480;50.252;18.848;2024-02-16T05:30:31;99058.58;;;5.70;87.28
62436;BME280;48480;50.252;18.848;2024-02-16T05:33:15;99063.80;;;5.71;87.21
62436;BME280;48480;50.252;18.848;2024-02-16T05:35:59;99065.55;;;5.68;87.25
62436;BME280;48480;50.252;18.848;2024-02-16T05:38:43;99066.15;;;5.63;87.44
62436;BME280;48480;50.252;18.848;2024-02-16T05:41:27;99067.97;;;5.57;87.57
62436;BME280;48480;50.252;18.848;2024-02-16T05:44:11;99066.84;;;5.53;87.68
62436;BME280;48480;50.252;18.848;2024-02-16T05:46:54;99069.77;;;5.48;87.75
62436;BME280;48480;50.252;18.848;2024-02-16T05:49:38;99069.14;;;5.43;87.73
62436;BME280;48480;50.252;18.848;2024-02-16T05:52:23;99065.41;;;5.45;87.77
62436;BME280;48480;50.252;18.848;2024-02-16T05:55:08;99064.55;;;5.53;87.47
62436;BME280;48480;50.252;18.848;2024-02-16T05:57:52;99066.30;;;5.53;87.50
62436;BME280;48480;50.252;18.848;2024-02-16T06:00:36;99068.02;;;5.46;87.73
62436;BME280;48480;50.252;18.848;2024-02-16T06:03:21;99069.13;;;5.34;88.09
62436;BME280;48480;50.252;18.848;2024-02-16T06:06:06;99073.17;;;5.26;88.32
62436;BME280;48480;50.252;18.848;2024-02-16T06:08:51;99075.23;;;5.23;88.51
62436;BME280;48480;50.252;18.848;2024-02-16T06:11:37;99077.27;;;5.23;88.54
62436;BME280;48480;50.252;18.848;2024-02-16T06:14:22;99078.81;;;5.27;88.49
62436;BME280;48480;50.252;18.848;2024-02-16T06:17:07;99080.63;;;5.33;88.40
62436;BME280;48480;50.252;18.848;2024-02-16T06:19:52;99083.02;;;5.42;88.30
62436;BME280;48480;50.252;18.848;2024-02-16T06:22:36;99083.61;;;5.50;88.15
62436;BME280;48480;50.252;18.848;2024-02-16T06:25:21;99082.55;;;5.55;87.87
62436;BME280;48480;50.252;18.848;2024-02-16T06:28:05;99085.90;;;5.54;87.74
62436;BME280;48480;50.252;18.848;2024-02-16T06:30:49;99092.98;;;5.55;87.83
62436;BME280;48480;50.252;18.848;2024-02-16T06:33:33;99095.85;;;5.57;87.80
62436;BME280;48480;50.252;18.848;2024-02-16T06:36:17;99097.07;;;5.55;87.63
62436;BME280;48480;50.252;18.848;2024-02-16T06:39:02;99098.15;;;5.56;87.44
62436;BME280;48480;50.252;18.848;2024-02-16T06:41:47;99097.29;;;5.62;87.24
62436;BME280;48480;50.252;18.848;2024-02-16T06:44:31;99095.00;;;5.66;87.14
62436;BME280;48480;50.252;18.848;2024-02-16T06:47:17;99096.70;;;5.69;87.21
62436;BME280;48480;50.252;18.848;2024-02-16T06:50:02;99101.33;;;5.70;87.14
62436;BME280;48480;50.252;18.848;2024-02-16T06:52:47;99101.49;;;5.66;87.00
62436;BME280;48480;50.252;18.848;2024-02-16T06:55:30;99106.70;;;5.64;87.29
62436;BME280;48480;50.252;18.848;2024-02-16T06:58:15;99112.89;;;5.62;87.25
62436;BME280;48480;50.252;18.848;2024-02-16T07:00:59;99112.14;;;5.64;87.00
62436;BME280;48480;50.252;18.848;2024-02-16T07:03:46;99119.48;;;5.71;86.93
62436;BME280;48480;50.252;18.848;2024-02-16T07:06:31;99115.91;;;5.74;86.98
62436;BME280;48480;50.252;18.848;2024-02-16T07:09:15;99115.54;;;5.75;86.93
62436;BME280;48480;50.252;18.848;2024-02-16T07:12:00;99118.37;;;5.75;87.00
62436;BME280;48480;50.252;18.848;2024-02-16T07:14:44;99116.66;;;5.74;87.25
62436;BME280;48480;50.252;18.848;2024-02-16T07:17:29;99120.70;;;5.79;87.45
62436;BME280;48480;50.252;18.848;2024-02-16T07:20:13;99124.48;;;5.83;87.09
62436;BME280;48480;50.252;18.848;2024-02-16T07:22:59;99125.18;;;5.91;87.10
62436;BME280;48480;50.252;18.848;2024-02-16T07:25:43;99127.16;;;6.04;86.80
62436;BME280;48480;50.252;18.848;2024-02-16T07:28:27;99129.59;;;6.14;86.51
62436;BME280;48480;50.252;18.848;2024-02-16T07:31:11;99131.07;;;6.23;86.53
62436;BME280;48480;50.252;18.848;2024-02-16T07:33:55;99131.45;;;6.40;86.50
62436;BME280;48480;50.252;18.848;2024-02-16T07:36:40;99133.25;;;6.62;86.17
62436;BME280;48480;50.252;18.848;2024-02-16T07:39:25;99126.69;;;6.96;86.18
62436;BME280;48480;50.252;18.848;2024-02-16T07:42:10;99127.35;;;7.38;85.25
62436;BME280;48480;50.252;18.848;2024-02-16T07:44:56;99119.59;;;7.88;84.09
62436;BME280;48480;50.252;18.848;2024-02-16T07:47:41;99117.83;;;8.38;82.47
62436;BME280;48480;50.252;18.848;2024-02-16T07:50:25;99119.02;;;8.88;80.63
62436;BME280;48480;50.252;18.848;2024-02-16T07:53:09;99118.46;;;9.39;79.39
62436;BME280;48480;50.252;18.848;2024-02-16T07:55:55;99117.80;;;9.88;77.67
62436;BME280;48480;50.252;18.848;2024-02-16T07:58:41;99116.36;;;10.24;76.09
62436;BME280;48480;50.252;18.848;2024-02-16T08:01:26;99115.20;;;10.58;74.78
62436;BME280;48480;50.252;18.848;2024-02-16T08:04:10;99119.27;;;10.88;73.25
62436;BME280;48480;50.252;18.848;2024-02-16T08:06:54;99117.39;;;11.20;72.37
62436;BME280;48480;50.252;18.848;2024-02-16T08:09:39;99116.30;;;11.48;70.69
62436;BME280;48480;50.252;18.848;2024-02-16T08:12:23;99113.32;;;11.74;69.37
62436;BME280;48480;50.252;18.848;2024-02-16T08:15:09;99110.71;;;12.05;68.62
62436;BME280;48480;50.252;18.848;2024-02-16T08:17:54;99108.71;;;12.39;67.59
62436;BME280;48480;50.252;18.848;2024-02-16T08:20:38;99109.95;;;12.74;66.45
62436;BME280;48480;50.252;18.848;2024-02-16T08:23:23;99107.04;;;13.06;65.21
62436;BME280;48480;50.252;18.848;2024-02-16T08:26:07;99103.02;;;13.37;64.33
62436;BME280;48480;50.252;18.848;2024-02-16T08:28:51;99103.74;;;13.65;63.33
62436;BME280;48480;50.252;18.848;2024-02-16T08:31:35;99104.81;;;13.87;62.34
62436;BME280;48480;50.252;18.848;2024-02-16T08:34:20;99112.30;;;14.08;61.54
62436;BME280;48480;50.252;18.848;2024-02-16T08:37:05;99112.80;;;14.30;60.30
62436;BME280;48480;50.252;18.848;2024-02-16T08:39:49;99113.24;;;14.52;59.54
62436;BME280;48480;50.252;18.848;2024-02-16T08:42:34;99117.11;;;14.67;58.96
62436;BME280;48480;50.252;18.848;2024-02-16T08:45:17;99112.39;;;14.82;58.83
62436;BME280;48480;50.252;18.848;2024-02-16T08:48:01;99108.15;;;15.02;58.05
62436;BME280;48480;50.252;18.848;2024-02-16T08:50:47;99107.11;;;15.18;57.25
62436;BME280;48480;50.252;18.848;2024-02-16T08:53:32;99110.33;;;15.34;57.27
62436;BME280;48480;50.252;18.848;2024-02-16T08:56:16;99108.95;;;15.52;56.53
62436;BME280;48480;50.252;18.848;2024-02-16T08:59:00;99107.31;;;15.67;55.96
62436;BME280;48480;50.252;18.848;2024-02-16T09:01:44;99097.99;;;15.78;55.42
62436;BME280;48480;50.252;18.848;2024-02-16T09:04:28;99103.23;;;15.96;54.84
62436;BME280;48480;50.252;18.848;2024-02-16T09:07:12;99098.54;;;16.06;54.58
62436;BME280;48480;50.252;18.848;2024-02-16T09:09:56;99100.52;;;16.14;54.01
62436;BME280;48480;50.252;18.848;2024-02-16T09:12:40;99101.17;;;16.20;53.79
62436;BME280;48480;50.252;18.848;2024-02-16T09:15:24;99099.43;;;16.28;53.57
62436;BME280;48480;50.252;18.848;2024-02-16T09:18:08;99099.71;;;16.40;53.25
62436;BME280;48480;50.252;18.848;2024-02-16T09:20:52;99096.60;;;16.49;53.24
62436;BME280;48480;50.252;18.848;2024-02-16T09:23:36;99097.33;;;16.65;52.66
62436;BME280;48480;50.252;18.848;2024-02-16T09:26:21;99094.35;;;16.77;52.08
62436;BME280;48480;50.252;18.848;2024-02-16T09:29:06;99094.92;;;16.78;51.67
62436;BME280;48480;50.252;18.848;2024-02-16T09:31:53;99094.38;;;16.72;51.73
62436;BME280;48480;50.252;18.848;2024-02-16T09:34:37;99097.27;;;16.71;51.66
62436;BME280;48480;50.252;18.848;2024-02-16T09:37:21;99099.73;;;16.68;51.38
62436;BME280;48480;50.252;18.848;2024-02-16T09:40:06;99102.41;;;16.67;51.40
62436;BME280;48480;50.252;18.848;2024-02-16T09:42:52;99104.05;;;16.67;51.01
62436;BME280;48480;50.252;18.848;2024-02-16T09:48:14;99103.50;;;16.54;49.34
62436;BME280;48480;50.252;18.848;2024-02-16T09:51:02;99103.91;;;16.38;49.33
62436;BME280;48480;50.252;18.848;2024-02-16T09:53:50;99109.34;;;16.19;49.28
62436;BME280;48480;50.252;18.848;2024-02-16T09:56:39;99109.13;;;15.99;49.60
62436;BME280;48480;50.252;18.848;2024-02-16T09:59:23;99101.68;;;15.86;50.41
62436;BME280;48480;50.252;18.848;2024-02-16T10:02:08;99100.73;;;15.86;50.61
62436;BME280;48480;50.252;18.848;2024-02-16T10:04:53;99094.69;;;15.86;50.64
62436;BME280;48480;50.252;18.848;2024-02-16T10:07:38;99101.40;;;15.94;50.81
62436;BME280;48480;50.252;18.848;2024-02-16T10:10:25;99095.44;;;16.01;50.61
62436;BME280;48480;50.252;18.848;2024-02-16T10:13:10;99102.73;;;16.21;50.77
62436;BME280;48480;50.252;18.848;2024-02-16T10:16:08;99100.28;;;16.36;50.64
62436;BME280;48480;50.252;18.848;2024-02-16T10:18:55;99102.21;;;16.43;49.82
62436;BME280;48480;50.252;18.848;2024-02-16T10:21:39;99100.17;;;16.47;49.77
62436;BME280;48480;50.252;18.848;2024-02-16T10:24:24;99097.17;;;16.50;49.44
62436;BME280;48480;50.252;18.848;2024-02-16T10:27:15;99091.23;;;16.56;49.78
62436;BME280;48480;50.252;18.848;2024-02-16T10:30:00;99087.33;;;16.64;49.17
62436;BME280;48480;50.252;18.848;2024-02-16T10:32:44;99087.27;;;16.70;48.98
62436;BME280;48480;50.252;18.848;2024-02-16T10:35:29;99085.89;;;16.76;48.86
62436;BME280;48480;50.252;18.848;2024-02-16T10:38:14;99085.88;;;16.82;48.91
62436;BME280;48480;50.252;18.848;2024-02-16T10:40:59;99088.95;;;16.89;48.61
62436;BME280;48480;50.252;18.848;2024-02-16T10:43:48;99084.20;;;16.91;48.28
62436;BME280;48480;50.252;18.848;2024-02-16T10:46:34;99078.63;;;16.88;48.08
62436;BME280;48480;50.252;18.848;2024-02-16T10:49:19;99076.23;;;16.85;48.47
62436;BME280;48480;50.252;18.848;2024-02-16T10:52:05;99072.63;;;16.93;48.68
62436;BME280;48480;50.252;18.848;2024-02-16T10:54:56;99071.84;;;17.03;48.74
62436;BME280;48480;50.252;18.848;2024-02-16T10:57:49;99070.58;;;17.12;47.78
62436;BME280;48480;50.252;18.848;2024-02-16T11:03:37;99070.91;;;17.16;46.55
62436;BME280;48480;50.252;18.848;2024-02-16T11:06:21;99069.98;;;17.16;46.02
62436;BME280;48480;50.252;18.848;2024-02-16T11:09:05;99069.46;;;17.14;45.99
62436;BME280;48480;50.252;18.848;2024-02-16T11:11:55;99067.17;;;17.16;45.98
62436;BME280;48480;50.252;18.848;2024-02-16T11:14:43;99063.92;;;17.19;45.97
62436;BME280;48480;50.252;18.848;2024-02-16T11:17:28;99062.89;;;17.17;45.25
62436;BME280;48480;50.252;18.848;2024-02-16T11:20:12;99045.60;;;17.03;45.73
62436;BME280;48480;50.252;18.848;2024-02-16T11:23:08;99052.33;;;17.06;45.77
62436;BME280;48480;50.252;18.848;2024-02-16T11:25:53;99052.34;;;17.06;46.00
62436;BME280;48480;50.252;18.848;2024-02-16T11:28:37;99048.90;;;17.10;45.90
62436;BME280;48480;50.252;18.848;2024-02-16T11:31:21;99049.20;;;17.15;45.72
62436;BME280;48480;50.252;18.848;2024-02-16T11:34:06;99050.10;;;17.20;45.68
62436;BME280;48480;50.252;18.848;2024-02-16T11:36:55;99046.54;;;17.31;45.31
62436;BME280;48480;50.252;18.848;2024-02-16T11:39:40;99043.30;;;17.40;45.43
62436;BME280;48480;50.252;18.848;2024-02-16T11:42:27;99038.38;;;17.45;45.12
62436;BME280;48480;50.252;18.848;2024-02-16T11:45:11;99035.85;;;17.48;45.50
62436;BME280;48480;50.252;18.848;2024-02-16T11:48:08;99037.11;;;17.55;45.10
62436;BME280;48480;50.252;18.848;2024-02-16T11:51:02;99034.28;;;17.53;44.72
62436;BME280;48480;50.252;18.848;2024-02-16T11:53:55;99027.50;;;17.43;45.05
62436;BME280;48480;50.252;18.848;2024-02-16T11:56:40;99027.05;;;17.44;45.56
62436;BME280;48480;50.252;18.848;2024-02-16T11:59:26;99023.63;;;17.49;45.63
62436;BME280;48480;50.252;18.848;2024-02-16T12:02:17;99025.10;;;17.49;45.54
62436;BME280;48480;50.252;18.848;2024-02-16T12:05:02;99022.71;;;17.41;46.09
62436;BME280;48480;50.252;18.848;2024-02-16T12:07:47;99023.31;;;17.37;45.85
62436;BME280;48480;50.252;18.848;2024-02-16T12:10:32;99024.86;;;17.34;45.88
62436;BME280;48480;50.252;18.848;2024-02-16T12:13:19;99023.30;;;17.35;45.99
62436;BME280;48480;50.252;18.848;2024-02-16T12:16:05;99021.11;;;17.37;45.87
62436;BME280;48480;50.252;18.848;2024-02-16T12:18:50;99016.90;;;17.35;45.82
62436;BME280;48480;50.252;18.848;2024-02-16T12:21:35;99018.63;;;17.27;46.13
62436;BME280;48480;50.252;18.848;2024-02-16T12:24:20;99020.11;;;17.25;46.09
62436;BME280;48480;50.252;18.848;2024-02-16T12:27:05;99015.11;;;17.26;46.02
62436;BME280;48480;50.252;18.848;2024-02-16T12:29:49;99017.30;;;17.21;45.41
62436;BME280;48480;50.252;18.848;2024-02-16T12:32:33;99010.84;;;17.05;45.70
62436;BME280;48480;50.252;18.848;2024-02-16T12:35:17;99008.53;;;17.04;46.20
62436;BME280;48480;50.252;18.848;2024-02-16T12:38:01;99003.06;;;17.05;46.13
62436;BME280;48480;50.252;18.848;2024-02-16T12:40:48;99003.34;;;17.00;46.24
62436;BME280;48480;50.252;18.848;2024-02-16T12:43:32;99001.84;;;17.00;46.11
62436;BME280;48480;50.252;18.848;2024-02-16T12:46:16;98998.01;;;16.99;45.98
62436;BME280;48480;50.252;18.848;2024-02-16T12:49:01;98996.82;;;16.95;46.08
62436;BME280;48480;50.252;18.848;2024-02-16T12:51:46;98995.91;;;16.92;46.20
62436;BME280;48480;50.252;18.848;2024-02-16T12:54:31;98995.20;;;16.91;46.00
62436;BME280;48480;50.252;18.848;2024-02-16T12:57:17;98997.19;;;16.88;46.27
62436;BME280;48480;50.252;18.848;2024-02-16T13:00:07;98995.63;;;16.83;46.55
62436;BME280;48480;50.252;18.848;2024-02-16T13:02:51;98995.80;;;16.81;46.64
62436;BME280;48480;50.252;18.848;2024-02-16T13:05:36;98996.91;;;16.80;46.76
62436;BME280;48480;50.252;18.848;2024-02-16T13:08:20;98994.66;;;16.80;46.75
62436;BME280;48480;50.252;18.848;2024-02-16T13:11:04;98990.47;;;16.76;46.72
62436;BME280;48480;50.252;18.848;2024-02-16T13:13:48;98984.05;;;16.71;46.71
62436;BME280;48480;50.252;18.848;2024-02-16T13:16:32;98985.07;;;16.63;46.62
62436;BME280;48480;50.252;18.848;2024-02-16T13:19:17;98987.16;;;16.53;46.39
62436;BME280;48480;50.252;18.848;2024-02-16T13:22:01;98980.79;;;16.38;46.76
62436;BME280;48480;50.252;18.848;2024-02-16T13:24:45;98978.56;;;16.31;47.30
62436;BME280;48480;50.252;18.848;2024-02-16T13:27:30;98975.36;;;16.28;47.52
62436;BME280;48480;50.252;18.848;2024-02-16T13:30:14;98971.52;;;16.26;47.52
62436;BME280;48480;50.252;18.848;2024-02-16T13:32:58;98970.89;;;16.26;47.88
62436;BME280;48480;50.252;18.848;2024-02-16T13:35:41;98967.84;;;16.25;48.04
62436;BME280;48480;50.252;18.848;2024-02-16T13:38:25;98973.13;;;16.26;47.77
62436;BME280;48480;50.252;18.848;2024-02-16T13:41:09;98968.64;;;16.26;47.97
62436;BME280;48480;50.252;18.848;2024-02-16T13:43:53;98960.23;;;16.24;47.99
62436;BME280;48480;50.252;18.848;2024-02-16T13:46:37;98955.59;;;16.21;47.86
62436;BME280;48480;50.252;18.848;2024-02-16T13:49:21;98954.26;;;16.20;48.11
62436;BME280;48480;50.252;18.848;2024-02-16T13:52:05;98953.55;;;16.18;47.84
62436;BME280;48480;50.252;18.848;2024-02-16T13:54:50;98955.90;;;16.14;47.58
62436;BME280;48480;50.252;18.848;2024-02-16T13:57:34;98957.42;;;16.08;47.31
62436;BME280;48480;50.252;18.848;2024-02-16T14:00:19;98956.02;;;16.00;47.65
62436;BME280;48480;50.252;18.848;2024-02-16T14:03:09;98959.21;;;15.95;47.66
62436;BME280;48480;50.252;18.848;2024-02-16T14:05:53;98962.28;;;15.90;47.85
62436;BME280;48480;50.252;18.848;2024-02-16T14:08:37;98959.94;;;15.84;47.93
62436;BME280;48480;50.252;18.848;2024-02-16T14:11:22;98957.34;;;15.80;47.93
62436;BME280;48480;50.252;18.848;2024-02-16T14:14:06;98956.02;;;15.77;48.10
62436;BME280;48480;50.252;18.848;2024-02-16T14:16:50;98950.55;;;15.78;48.18
62436;BME280;48480;50.252;18.848;2024-02-16T14:19:35;98947.17;;;15.77;48.15
62436;BME280;48480;50.252;18.848;2024-02-16T14:22:21;98951.60;;;15.73;47.88
62436;BME280;48480;50.252;18.848;2024-02-16T14:25:05;98953.90;;;15.63;47.60
62436;BME280;48480;50.252;18.848;2024-02-16T14:27:50;98940.98;;;15.48;47.99
62436;BME280;48480;50.252;18.848;2024-02-16T14:30:34;98938.91;;;15.44;48.50
62436;BME280;48480;50.252;18.848;2024-02-16T14:33:21;98945.48;;;15.46;48.52